Flight Track Log - Related Links

Times and Time Zones

All times are in EDT time to prevent confusion due to time zone crossing. See the DAL1981 flight status page for this flight to view local times or setup timezone preferences in your user account.

Time Position Orientation Groundspeed Altitude Reporting Facility
EDT Latitude Longitude Course Direction KTS MPH feet Rate Location/Type
Mon 06:15:38 AM 42.7714 -73.8092 180° South 165 190 1,500  Level Boston Center
Mon 06:16:45 AM 42.8208 -73.8583 324° Northwest 226 260 3,800 2,579 Climbing Boston Center
Mon 06:17:32 AM 42.8475 -73.9042 308° West 243 280 6,400 3,084 Climbing Boston Center
Mon 06:18:00 AM 42.5295 -74.1092 200° South  Level Estimated
Mon 06:18:32 AM 42.8944 -73.9706 314° West 250 288 9,300  Level Boston Center
Mon 06:19:00 AM 42.4561 -74.2111 198° South  Level Estimated
Mon 06:19:32 AM 42.9203 -74.0647 291° West 245 282 10,400  Level Boston Center
Mon 06:20:00 AM 42.3678 -74.1339 147° Southeast  Level FlightAware Approximate
Mon 06:20:32 AM 42.9189 -74.1639 269° West 268 308 11,600  Level Boston Center
Mon 06:21:00 AM 42.2951 -74.2363 180° South  Level Estimated
Mon 06:21:32 AM 42.8692 -74.2758 239° Southwest 313 360 13,600  Level Boston Center
Mon 06:22:32 AM 42.7789 -74.3156 198° South 349 402 16,100 2,550 Climbing Boston Center
Mon 06:23:32 AM 42.6589 -74.2583 161° South 356 410 18,700 2,250 Climbing Boston Center
Mon 06:24:32 AM 42.5597 -74.2103 160° South 386 444 20,600 1,950 Climbing Boston Center
Mon 06:25:32 AM 42.4439 -74.1536 160° South 416 479 22,600 1,773 Climbing Boston Center
Mon 06:26:44 AM 42.3281 -74.0914 158° South 438 504 24,500 1,727 Climbing Boston Center
Mon 06:27:44 AM 42.1886 -74.0681 173° South 435 501 26,400 1,750 Climbing Boston Center
Mon 06:28:44 AM 42.0761 -74.0708 181° South 420 483 28,000 800 Climbing Boston Center
Mon 06:29:44 AM 41.9675 -74.0764 182° South 409 471 28,000  Level Boston Center
Mon 06:30:44 AM 41.8589 -74.0903 185° South 404 465 28,000  Level Boston Center
Mon 06:31:44 AM 41.7581 -74.1433 201° Southwest 366 421 28,000  Level Boston Center
Mon 06:32:44 AM 41.6675 -74.2131 210° Southwest 371 427 28,000  Level Boston Center
Mon 06:35:07 AM 41.4672 -74.3675 210° Southwest 382 440 28,000  Level New York Center
Mon 06:36:05 AM 41.3756 -74.4314 208° Southwest 382 440 28,000  Level New York Center
Mon 06:37:05 AM 41.2839 -74.4983 209° Southwest 382 440 28,000  Level New York Center
Mon 06:38:06 AM 41.1925 -74.5622 208° Southwest 382 440 28,000 -50 Level New York Center
Mon 06:39:06 AM 41.1028 -74.6314 210° Southwest 382 440 27,900  Descending New York Center
Mon 06:40:07 AM 41.0131 -74.6978 209° Southwest 377 434 28,000 50 Climbing New York Center
Mon 06:41:05 AM 40.9214 -74.7611 208° Southwest 377 434 28,000  Level New York Center
Mon 06:42:08 AM 40.8339 -74.8219 208° Southwest 377 434 28,000  Level New York Center
Mon 06:43:05 AM 40.7278 -74.8156 177° South 363 418 28,000  Level New York Center
Mon 06:44:08 AM 40.6200 -74.8011 174° South 372 428 28,000  Level New York Center
Mon 06:45:06 AM 40.5233 -74.8200 188° South 373 429 28,000  Level New York Center
Mon 06:46:07 AM 40.4661 -74.9094 230° Southwest 312 359 28,000  Level New York Center
Mon 06:47:08 AM 40.4289 -75.0189 246° West 312 359 28,000  Level New York Center
Mon 06:48:05 AM 40.3897 -75.1228 244° Southwest 317 365 28,000  Level New York Center
Mon 06:49:05 AM 40.3481 -75.2344 244° Southwest 328 377 28,000  Level New York Center
Mon 06:50:07 AM 40.3039 -75.3486 243° Southwest 342 394 28,000  Level New York Center
Mon 06:51:05 AM 40.2622 -75.4603 244° Southwest 347 399 28,000  Level New York Center
Mon 06:52:05 AM 40.2178 -75.5769 244° Southwest 352 405 28,000  Level New York Center
Mon 06:53:06 AM 40.1633 -75.6817 236° Southwest 357 411 28,000 -50 Level New York Center
Mon 06:54:05 AM 40.1111 -75.7892 238° Southwest 357 411 27,900  Descending New York Center
Mon 06:55:05 AM 40.0564 -75.8964 236° Southwest 357 411 28,000 50 Climbing New York Center
Mon 06:56:06 AM 39.9931 -76.0111 234° Southwest 357 411 28,000  Level New York Center
Mon 06:57:06 AM 39.9281 -76.1092 229° Southwest 362 417 28,000  Level New York Center
Mon 06:59:02 AM 39.8136 -76.2858 230° Southwest 358 412 28,000 -34 Level Washington Center
Mon 07:00:03 AM 39.7506 -76.3850 230° Southwest 358 412 27,900  Descending Washington Center
Mon 07:01:01 AM 39.6875 -76.4839 230° Southwest 358 412 28,000 50 Climbing Washington Center
Mon 07:02:02 AM 39.6158 -76.5800 226° Southwest 363 418 28,000  Level Washington Center
Mon 07:03:00 AM 39.5503 -76.6789 229° Southwest 363 418 28,000  Level Washington Center
Mon 07:04:02 AM 39.4892 -76.7775 231° Southwest 358 412 28,000  Level Washington Center
Mon 07:05:00 AM 39.4256 -76.8758 230° Southwest 358 412 28,000  Level Washington Center
Mon 07:06:01 AM 39.3597 -76.9792 231° Southwest 363 418 28,000  Level Washington Center
Mon 07:07:02 AM 39.2981 -77.0747 230° Southwest 363 418 28,000  Level Washington Center
Mon 07:08:00 AM 39.2322 -77.1753 230° Southwest 363 418 28,000  Level Washington Center
Mon 07:09:01 AM 39.1664 -77.2728 229° Southwest 363 418 28,000  Level Washington Center
Mon 07:10:01 AM 39.0983 -77.3756 230° Southwest 368 423 28,000  Level Washington Center
Mon 07:11:02 AM 39.0342 -77.4728 230° Southwest 368 423 28,000  Level Washington Center
Mon 07:12:00 AM 38.9681 -77.5728 230° Southwest 373 429 28,000  Level Washington Center
Mon 07:13:01 AM 38.8953 -77.6800 229° Southwest 373 429 28,000  Level Washington Center
Mon 07:14:01 AM 38.8333 -77.7717 229° Southwest 373 429 28,000  Level Washington Center
Mon 07:15:01 AM 38.7581 -77.8811 229° Southwest 379 436 28,000  Level Washington Center
Mon 07:16:02 AM 38.6897 -77.9775 228° Southwest 379 436 28,000  Level Washington Center
Mon 07:17:02 AM 38.6231 -78.0764 229° Southwest 374 430 28,000  Level Washington Center
Mon 07:18:00 AM 38.5542 -78.1775 229° Southwest 374 430 28,000  Level Washington Center
Mon 07:19:01 AM 38.4875 -78.2733 228° Southwest 374 430 28,000  Level Washington Center
Mon 07:20:01 AM 38.4206 -78.3742 230° Southwest 374 430 28,000  Level Washington Center
Mon 07:21:02 AM 38.3514 -78.4722 228° Southwest 374 430 28,000  Level Washington Center
Mon 07:22:00 AM 38.2822 -78.5703 228° Southwest 374 430 28,000  Level Washington Center
Mon 07:23:01 AM 38.2194 -78.6656 230° Southwest 374 430 28,000  Level Washington Center
Mon 07:24:02 AM 38.1567 -78.7553 228° Southwest 374 430 28,000  Level Washington Center
Mon 07:25:00 AM 38.0872 -78.8525 228° Southwest 374 430 28,000  Level Washington Center
Mon 07:26:00 AM 38.0200 -78.9472 228° Southwest 374 430 28,000  Level Washington Center
Mon 07:27:00 AM 37.9506 -79.0469 229° Southwest 374 430 28,000  Level Washington Center
Mon 07:28:01 AM 37.8742 -79.1539 228° Southwest 374 430 28,000  Level Washington Center
Mon 07:29:01 AM 37.8047 -79.2478 227° Southwest 374 430 28,000  Level Washington Center
Mon 07:30:01 AM 37.7328 -79.3467 227° Southwest 374 430 28,000  Level Washington Center
Mon 07:31:02 AM 37.6697 -79.4328 227° Southwest 379 436 28,000  Level Washington Center
Mon 07:32:02 AM 37.5911 -79.5417 228° Southwest 384 442 28,000  Level Washington Center
Mon 07:33:02 AM 37.5189 -79.6400 227° Southwest 384 442 28,000  Level Washington Center
Mon 07:34:03 AM 37.4467 -79.7356 226° Southwest 384 442 28,000  Level Washington Center
Mon 07:35:01 AM 37.3742 -79.8386 229° Southwest 394 453 28,000  Level Washington Center
Mon 07:36:01 AM 37.3083 -79.9292 228° Southwest 394 453 28,000  Level Washington Center
Mon 07:37:00 AM 37.2383 -80.0242 227° Southwest 394 453 28,000  Level Washington Center
Mon 07:38:07 AM 37.1456 -80.1436 226° Southwest 395 455 28,000  Level Atlanta Center
Mon 07:39:07 AM 37.0814 -80.2300 227° Southwest 395 455 28,000  Level Atlanta Center
Mon 07:40:07 AM 37.0094 -80.3269 227° Southwest 385 443 28,000  Level Atlanta Center
Mon 07:41:07 AM 36.9372 -80.4239 227° Southwest 385 443 28,000  Level Atlanta Center
Mon 07:42:07 AM 36.8650 -80.5206 227° Southwest 385 443 28,000  Level Atlanta Center
Mon 07:43:07 AM 36.7825 -80.6253 225° Southwest 385 443 28,000  Level Atlanta Center
Mon 07:44:07 AM 36.7122 -80.7242 228° Southwest 380 437 28,000  Level Atlanta Center
Mon 07:45:07 AM 36.6394 -80.8178 226° Southwest 380 437 28,000  Level Atlanta Center
Mon 07:46:07 AM 36.5731 -80.9083 228° Southwest 386 444 28,000  Level Atlanta Center
Mon 07:47:07 AM 36.5006 -81.0042 227° Southwest 380 437 28,000  Level Atlanta Center
Mon 07:48:07 AM 36.4278 -81.1025 227° Southwest 385 443 28,000  Level Atlanta Center
Mon 07:49:07 AM 36.3528 -81.2006 226° Southwest 385 443 28,000  Level Atlanta Center
Mon 07:50:07 AM 36.2781 -81.2983 227° Southwest 385 443 28,000  Level Atlanta Center
Mon 07:51:07 AM 36.2050 -81.3936 226° Southwest 380 437 28,000  Level Atlanta Center
Mon 07:52:07 AM 36.1300 -81.4936 227° Southwest 390 449 28,000  Level Atlanta Center
Mon 07:53:07 AM 36.0547 -81.5911 226° Southwest 390 449 28,000  Level Atlanta Center
Mon 07:54:07 AM 35.9794 -81.6858 226° Southwest 390 449 28,000  Level Atlanta Center
Mon 07:55:07 AM 35.9019 -81.7881 227° Southwest 390 449 28,000  Level Atlanta Center
Mon 07:56:07 AM 35.8206 -81.8928 226° Southwest 395 455 28,000  Level Atlanta Center
Mon 07:57:07 AM 35.7408 -81.9919 225° Southwest 395 455 28,000  Level Atlanta Center
Mon 07:58:07 AM 35.6589 -82.0833 222° Southwest 406 467 28,000  Level Atlanta Center
Mon 07:59:07 AM 35.5789 -82.1747 223° Southwest 401 461 28,000  Level Atlanta Center
Mon 08:00:07 AM 35.4989 -82.2683 224° Southwest 401 461 28,000  Level Atlanta Center
Mon 08:01:07 AM 35.4250 -82.3542 223° Southwest 381 438 28,000 -100 Level Atlanta Center
Mon 08:02:07 AM 35.3511 -82.4372 223° Southwest 375 432 27,800 -400 Descending Atlanta Center
Mon 08:03:07 AM 35.2728 -82.5225 222° Southwest 370 426 27,200 -650 Descending Atlanta Center
Mon 08:04:07 AM 35.2050 -82.6025 224° Southwest 370 426 26,500 -650 Descending Atlanta Center
Mon 08:05:07 AM 35.1267 -82.6928 223° Southwest 375 432 25,900 -600 Descending Atlanta Center
Mon 08:06:07 AM 35.0464 -82.7831 223° Southwest 386 444 25,300 -600 Descending Atlanta Center
Mon 08:07:07 AM 34.9658 -82.8703 222° Southwest 386 444 24,700 -600 Descending Atlanta Center
Mon 08:08:07 AM 34.8769 -82.9678 222° Southwest 391 450 24,100 -350 Descending Atlanta Center
Mon 08:09:07 AM 34.7983 -83.0572 223° Southwest 391 450 24,000 -50 Descending Atlanta Center
Mon 08:10:07 AM 34.7258 -83.1392 223° Southwest 397 457 24,000  Level Atlanta Center
Mon 08:11:07 AM 34.6472 -83.2283 223° Southwest 397 457 24,000 -200 Level Atlanta Center
Mon 08:12:07 AM 34.5664 -83.3147 221° Southwest 392 451 23,600 -550 Descending Atlanta Center
Mon 08:13:07 AM 34.4875 -83.4036 223° Southwest 392 451 22,900 -1,700 Descending Atlanta Center
Mon 08:14:07 AM 34.4067 -83.4875 221° Southwest 392 451 20,200 -2,600 Descending Atlanta Center
Mon 08:15:07 AM 34.3339 -83.5733 224° Southwest 381 438 17,700 -2,400 Descending Atlanta Center
Mon 08:16:07 AM 34.2508 -83.6644 222° Southwest 376 433 15,400 -2,450 Descending Atlanta Center
Mon 08:17:07 AM 34.1758 -83.7475 223° Southwest 369 425 12,800 -1,700 Descending Atlanta Center
Mon 08:18:07 AM 34.1072 -83.8231 222° Southwest 364 419 12,000 -400 Descending Atlanta Center
Mon 08:19:07 AM 34.0489 -83.8883 223° Southwest 320 368 12,000 -545 Level Atlanta Center
Mon 08:19:35 AM 34.0167 -83.9167 216° Southwest 281 323 11,200 -1,705 Descending Atlanta TRACON
Mon 08:20:35 AM 33.9500 -83.9667 212° Southwest 289 333 9,500 -1,100 Descending Atlanta TRACON
Mon 08:21:35 AM 33.8667 -83.9667 180° South 299 344 9,000 -326 Descending Atlanta TRACON
Mon 08:22:07 AM 33.8297 -83.9664 180° South 296 341 9,000 -326 Level Atlanta Center
Mon 08:23:07 AM 33.7461 -83.9664 180° South 296 341 8,500 -900 Descending Atlanta Center
Mon 08:24:07 AM 33.6772 -83.9864 194° South 291 335 7,200 -1,000 Descending Atlanta Center
Mon 08:25:07 AM 33.6314 -84.0389 224° Southwest 246 283 6,500 -600 Descending Atlanta Center
Mon 08:26:07 AM 33.6314 -84.1111 270° West 211 243 6,000 -674 Descending Atlanta Center
Mon 08:26:36 AM 33.6333 -84.1500 273° West 218 251 5,500 -1,229 Descending Atlanta TRACON
Mon 08:27:30 AM 33.6333 -84.2167 270° West 216 249 4,300 -1,333 Descending Atlanta TRACON

Login

Don't have an account? Register now (free) for customized features, flight alerts, and more!